Time;durP1;ratioP1;P1;durP2;ratioP2;P2;SDS_P1;SDS_P2;PMS_P1;PMS_P2;Temp;Humidity;BMP_temperature;BMP_pressure;BME280_temperature;BME280_humidity;BME280_pressure;Samples;Min_cycle;Max_cycle;Signal;HPM_P1;HPM_P2
2022/10/18 00:01:44;;;;;;;15.90;10.55;;;;;;;;;;5046214;28;20494;-68
2022/10/18 00:04:11;;;;;;;21.48;9.38;;;;;;;;;;5044909;28;20065;-68
2022/10/18 00:06:38;;;;;;;50.13;9.43;;;;;;;;;;5044213;28;20774;-68
2022/10/18 00:09:04;;;;;;;68.55;13.30;;;;;;;;;;5047807;28;20122;-68
2022/10/18 00:11:30;;;;;;;47.90;11.38;;;;;;;;;;5049585;28;20036;-68
2022/10/18 00:13:57;;;;;;;23.63;9.63;;;;;;;;;;5039217;28;20399;-68
2022/10/18 00:16:23;;;;;;;34.22;10.02;;;;;;;;;;5048051;28;20029;-68
2022/10/18 00:18:49;;;;;;;36.35;11.80;;;;;;;;;;5049728;28;20444;-68
2022/10/18 00:21:19;;;;;;;27.85;10.82;;;;;;;;;;5049640;28;20049;-68
2022/10/18 00:23:46;;;;;;;52.53;10.03;;;;;;;;;;5044771;28;20033;-68
2022/10/18 00:26:12;;;;;;;95.93;16.38;;;;;;;;;;5051443;28;20103;-68
2022/10/18 00:28:38;;;;;;;57.22;16.17;;;;;;;;;;5044232;28;20048;-68
2022/10/18 00:31:16;;;;;;;157.23;20.17;;;;;;;;;;5045996;28;20036;-68
2022/10/18 00:33:43;;;;;;;65.35;14.50;;;;;;;;;;5050448;28;20072;-68
2022/10/18 00:36:10;;;;;;;46.47;17.23;;;;;;;;;;5040477;28;20450;-68
2022/10/18 00:38:36;;;;;;;104.80;16.98;;;;;;;;;;5052365;28;20418;-68
2022/10/18 00:41:02;;;;;;;61.70;15.05;;;;;;;;;;5049986;28;20127;-68
2022/10/18 00:43:28;;;;;;;96.07;17.77;;;;;;;;;;5053756;28;20494;-67
2022/10/18 00:45:54;;;;;;;85.43;16.30;;;;;;;;;;5053903;28;20044;-68
2022/10/18 00:48:20;;;;;;;86.15;19.02;;;;;;;;;;5053608;28;20048;-68
2022/10/18 00:50:47;;;;;;;43.40;15.23;;;;;;;;;;5045883;28;20044;-68
2022/10/18 00:53:15;;;;;;;45.88;16.27;;;;;;;;;;5044689;28;20124;-68
2022/10/18 00:55:42;;;;;;;66.47;18.58;;;;;;;;;;5052772;28;20028;-67
2022/10/18 00:58:08;;;;;;;89.38;17.42;;;;;;;;;;5054048;28;20135;-67
2022/10/18 01:00:38;;;;;;;75.80;16.95;;;;;;;;;;5049942;28;20402;-67
2022/10/18 01:03:04;;;;;;;41.55;14.95;;;;;;;;;;5036727;28;20503;-67
2022/10/18 01:05:30;;;;;;;31.77;14.43;;;;;;;;;;5053456;28;20037;-67
2022/10/18 01:08:18;;;;;;;34.67;15.70;;;;;;;;;;5052935;28;20033;-68
2022/10/18 01:10:56;;;;;;;43.00;15.52;;;;;;;;;;5040460;28;20087;-67
2022/10/18 01:13:40;;;;;;;38.03;16.20;;;;;;;;;;5047911;28;20068;-67
2022/10/18 01:16:13;;;;;;;42.30;18.77;;;;;;;;;;5053760;28;20494;-67
2022/10/18 01:18:51;;;;;;;56.20;18.00;;;;;;;;;;5050563;28;20048;-67
2022/10/18 01:21:24;;;;;;;45.50;17.85;;;;;;;;;;5044398;28;20503;-67
2022/10/18 01:24:08;;;;;;;25.33;16.60;;;;;;;;;;5051568;28;20041;-67
2022/10/18 01:26:49;;;;;;;40.33;18.98;;;;;;;;;;5044710;28;20036;-67
2022/10/18 01:29:34;;;;;;;45.97;17.63;;;;;;;;;;5052537;28;20072;-67
2022/10/18 01:32:05;;;;;;;27.60;17.83;;;;;;;;;;5044903;28;20037;-67
2022/10/18 01:34:31;;;;;;;;;;;;;;;;;;5043464;28;20033;-68
2022/10/18 01:36:58;;;;;;;57.72;19.15;;;;;;;;;;5052654;28;20066;-67
2022/10/18 01:39:27;;;;;;;33.83;17.45;;;;;;;;;;5049563;28;20502;-67
2022/10/18 01:41:53;;;;;;;58.00;18.58;;;;;;;;;;5049961;28;20044;-67
2022/10/18 01:44:25;;;;;;;38.10;19.25;;;;;;;;;;5052418;28;20041;-67
2022/10/18 01:46:52;;;;;;;43.88;18.38;;;;;;;;;;5053681;28;20037;-67
2022/10/18 01:49:18;;;;;;;32.92;16.73;;;;;;;;;;5053019;28;20041;-68
2022/10/18 01:51:44;;;;;;;30.13;16.80;;;;;;;;;;5052747;28;20044;-67
2022/10/18 01:54:12;;;;;;;36.05;16.23;;;;;;;;;;5047375;28;20034;-68
2022/10/18 01:56:38;;;;;;;30.42;14.93;;;;;;;;;;5046543;28;20033;-68
2022/10/18 01:59:07;;;;;;;38.42;17.42;;;;;;;;;;5049120;28;20044;-68
2022/10/18 02:01:42;;;;;;;42.83;16.13;;;;;;;;;;5035781;28;20510;-68
2022/10/18 02:04:19;;;;;;;27.15;15.02;;;;;;;;;;5052299;28;20033;-68
2022/10/18 02:06:51;;;;;;;26.10;16.30;;;;;;;;;;5051418;28;20039;-68
2022/10/18 02:09:19;;;;;;;30.08;14.65;;;;;;;;;;5039774;28;20135;-68
2022/10/18 02:11:47;;;;;;;54.38;15.65;;;;;;;;;;5052425;28;20086;-68
2022/10/18 02:14:14;;;;;;;29.27;14.13;;;;;;;;;;5052107;28;20052;-68
2022/10/18 02:16:42;;;;;;;71.28;16.65;;;;;;;;;;5043644;28;20510;-67
2022/10/18 02:19:20;;;;;;;65.28;16.30;;;;;;;;;;5046774;28;20041;-68
2022/10/18 02:21:47;;;;;;;36.63;14.73;;;;;;;;;;5045722;28;20036;-68
2022/10/18 02:24:14;;;;;;;88.65;16.67;;;;;;;;;;5048743;28;20075;-68
2022/10/18 02:26:40;;;;;;;28.58;13.05;;;;;;;;;;5048431;28;20124;-68
2022/10/18 02:29:07;;;;;;;36.97;12.73;;;;;;;;;;5052298;28;20086;-68
2022/10/18 02:31:39;;;;;;;45.95;14.63;;;;;;;;;;5051538;28;20037;-68
2022/10/18 02:34:22;;;;;;;33.88;12.45;;;;;;;;;;5048188;28;20562;-67
2022/10/18 02:36:51;;;;;;;51.85;12.98;;;;;;;;;;5043873;28;20040;-68
2022/10/18 02:39:24;;;;;;;57.67;14.63;;;;;;;;;;5045116;28;20037;-68
2022/10/18 02:41:50;;;;;;;29.48;12.77;;;;;;;;;;5044464;28;20040;-68
2022/10/18 02:44:16;;;;;;;60.80;13.55;;;;;;;;;;5052277;28;20040;-68
2022/10/18 02:46:43;;;;;;;32.83;12.98;;;;;;;;;;5051785;28;20052;-68
2022/10/18 02:49:09;;;;;;;31.17;13.30;;;;;;;;;;5048844;28;20045;-67
2022/10/18 02:51:34;;;;;;;70.50;15.77;;;;;;;;;;5050947;28;20039;-68
2022/10/18 02:54:00;;;;;;;54.15;14.80;;;;;;;;;;5046463;28;20033;-68
2022/10/18 02:56:26;;;;;;;69.18;15.48;;;;;;;;;;5051773;28;20088;-68
2022/10/18 02:58:52;;;;;;;40.22;13.77;;;;;;;;;;5051463;28;20041;-68
2022/10/18 03:01:18;;;;;;;54.72;14.18;;;;;;;;;;5048468;28;20407;-68
2022/10/18 03:03:44;;;;;;;66.40;16.15;;;;;;;;;;5049265;28;20041;-68
2022/10/18 03:06:10;;;;;;;62.97;15.88;;;;;;;;;;5042596;28;20044;-68
2022/10/18 03:08:37;;;;;;;28.73;14.57;;;;;;;;;;5050649;28;20574;-68
2022/10/18 03:11:03;;;;;;;43.00;15.02;;;;;;;;;;5047751;28;20085;-67
2022/10/18 03:13:29;;;;;;;69.15;16.85;;;;;;;;;;5051358;28;20074;-68
2022/10/18 03:15:55;;;;;;;39.05;14.50;;;;;;;;;;5048248;28;20558;-68
2022/10/18 03:18:21;;;;;;;68.95;17.33;;;;;;;;;;5039403;28;20124;-68
2022/10/18 03:20:47;;;;;;;44.70;16.23;;;;;;;;;;5049988;28;20404;-68
2022/10/18 03:23:13;;;;;;;43.40;16.50;;;;;;;;;;5046233;28;20045;-68
2022/10/18 03:25:39;;;;;;;36.35;15.52;;;;;;;;;;5050447;28;20052;-68
2022/10/18 03:28:05;;;;;;;52.42;17.40;;;;;;;;;;5048132;28;20037;-68
2022/10/18 03:30:31;;;;;;;75.63;18.25;;;;;;;;;;5036798;28;20041;-68
2022/10/18 03:32:57;;;;;;;38.97;16.00;;;;;;;;;;5051386;28;20036;-68
2022/10/18 03:35:23;;;;;;;30.80;15.60;;;;;;;;;;5050156;28;20037;-67
2022/10/18 03:37:49;;;;;;;34.67;14.80;;;;;;;;;;5042101;28;20043;-68
2022/10/18 03:40:15;;;;;;;32.72;14.75;;;;;;;;;;5048539;28;20037;-68
2022/10/18 03:42:41;;;;;;;32.60;13.93;;;;;;;;;;5046232;28;20114;-68
2022/10/18 03:45:07;;;;;;;36.13;14.75;;;;;;;;;;5051184;28;20495;-68
2022/10/18 03:47:33;;;;;;;51.80;15.18;;;;;;;;;;5051779;28;20037;-68
2022/10/18 03:49:59;;;;;;;31.50;14.77;;;;;;;;;;5044617;28;20582;-68
2022/10/18 03:52:25;;;;;;;24.05;13.77;;;;;;;;;;5042973;28;20037;-68
2022/10/18 03:54:51;;;;;;;22.67;14.50;;;;;;;;;;5048939;28;20033;-67
2022/10/18 03:57:17;;;;;;;30.35;14.60;;;;;;;;;;5049661;28;20079;-67
2022/10/18 03:59:43;;;;;;;41.40;14.75;;;;;;;;;;5049515;28;20475;-68
2022/10/18 04:02:09;;;;;;;24.65;13.93;;;;;;;;;;5049094;28;20114;-67
2022/10/18 04:04:35;;;;;;;53.72;14.48;;;;;;;;;;5045110;28;20044;-68
2022/10/18 04:07:01;;;;;;;44.50;14.70;;;;;;;;;;5043410;28;20040;-68
2022/10/18 04:09:27;;;;;;;47.40;16.27;;;;;;;;;;5051442;28;20053;-68
2022/10/18 04:11:53;;;;;;;54.45;16.05;;;;;;;;;;5040454;28;20037;-68
2022/10/18 04:14:22;;;;;;;41.50;15.45;;;;;;;;;;5048125;28;20037;-68
2022/10/18 04:16:48;;;;;;;37.85;15.05;;;;;;;;;;5047042;28;20480;-67
2022/10/18 04:19:14;;;;;;;74.32;17.08;;;;;;;;;;5052348;28;20044;-68
2022/10/18 04:21:40;;;;;;;83.90;17.27;;;;;;;;;;5047229;28;20037;-68
2022/10/18 04:24:06;;;;;;;67.35;16.80;;;;;;;;;;5051794;28;20411;-67
2022/10/18 04:26:32;;;;;;;30.92;14.07;;;;;;;;;;5048235;28;20112;-67
2022/10/18 04:28:58;;;;;;;47.40;15.27;;;;;;;;;;5054004;28;20159;-67
2022/10/18 04:31:24;;;;;;;34.35;15.13;;;;;;;;;;5041830;28;20038;-67
2022/10/18 04:33:50;;;;;;;36.63;14.35;;;;;;;;;;5041068;28;20479;-67
2022/10/18 04:36:16;;;;;;;31.85;14.55;;;;;;;;;;5049454;28;20088;-67
2022/10/18 04:38:42;;;;;;;34.63;14.35;;;;;;;;;;5054769;28;20442;-67
2022/10/18 04:41:08;;;;;;;29.55;13.63;;;;;;;;;;5049365;28;20071;-67
2022/10/18 04:43:34;;;;;;;22.98;14.18;;;;;;;;;;5047336;28;20040;-67
2022/10/18 04:46:00;;;;;;;38.75;14.77;;;;;;;;;;5044725;28;20406;-67
2022/10/18 04:48:26;;;;;;;31.83;14.75;;;;;;;;;;5054406;28;20037;-67
2022/10/18 04:50:52;;;;;;;34.50;14.90;;;;;;;;;;5052904;28;20129;-67
2022/10/18 04:53:18;;;;;;;28.85;14.10;;;;;;;;;;5048274;28;20120;-66
2022/10/18 04:55:47;;;;;;;26.23;14.00;;;;;;;;;;5049800;28;20401;-66
2022/10/18 04:58:14;;;;;;;33.42;15.27;;;;;;;;;;5046130;28;20151;-67
2022/10/18 05:00:40;;;;;;;31.50;13.73;;;;;;;;;;5049610;28;20049;-67
2022/10/18 05:03:07;;;;;;;30.63;13.52;;;;;;;;;;5052640;28;20052;-67
2022/10/18 05:05:33;;;;;;;21.00;13.93;;;;;;;;;;5051164;28;20072;-67
2022/10/18 05:07:58;;;;;;;30.23;14.30;;;;;;;;;;5032506;28;20529;-67
2022/10/18 05:10:24;;;;;;;53.42;15.82;;;;;;;;;;5019462;28;20052;-67
2022/10/18 05:12:50;;;;;;;28.27;13.32;;;;;;;;;;5018604;28;20564;-67
2022/10/18 05:15:17;;;;;;;46.95;15.27;;;;;;;;;;5028478;28;20045;-67
2022/10/18 05:17:42;;;;;;;34.40;14.07;;;;;;;;;;5042033;28;20049;-67
2022/10/18 05:20:09;;;;;;;48.65;15.07;;;;;;;;;;5050304;28;20037;-67
2022/10/18 05:22:35;;;;;;;59.58;15.50;;;;;;;;;;5041012;28;20450;-67
2022/10/18 05:25:01;;;;;;;43.00;15.73;;;;;;;;;;5045091;28;20095;-67
2022/10/18 05:27:27;;;;;;;42.30;15.30;;;;;;;;;;5051577;28;20110;-66
2022/10/18 05:29:53;;;;;;;38.20;15.27;;;;;;;;;;5051866;28;20045;-67
2022/10/18 05:32:19;;;;;;;51.95;14.30;;;;;;;;;;5047791;28;20479;-67
2022/10/18 05:34:45;;;;;;;38.90;15.05;;;;;;;;;;5050549;28;20037;-67
2022/10/18 05:37:11;;;;;;;44.20;14.60;;;;;;;;;;5046053;28;20037;-68
2022/10/18 05:39:37;;;;;;;71.03;16.33;;;;;;;;;;5051743;28;20466;-67
2022/10/18 05:42:04;;;;;;;31.98;14.55;;;;;;;;;;5050062;28;20049;-67
2022/10/18 05:44:30;;;;;;;40.88;13.32;;;;;;;;;;5051160;28;20447;-66
2022/10/18 05:46:56;;;;;;;126.90;18.42;;;;;;;;;;5047500;28;20037;-67
2022/10/18 05:49:22;;;;;;;95.50;16.15;;;;;;;;;;5049682;28;20120;-66
2022/10/18 05:51:48;;;;;;;108.45;17.42;;;;;;;;;;5042655;28;20119;-67
2022/10/18 05:54:15;;;;;;;96.78;15.25;;;;;;;;;;5044345;28;20032;-67
2022/10/18 05:56:41;;;;;;;64.40;14.85;;;;;;;;;;5046559;28;20088;-67
2022/10/18 05:59:10;;;;;;;76.78;15.55;;;;;;;;;;5050230;28;20033;-68
2022/10/18 06:01:37;;;;;;;51.60;14.40;;;;;;;;;;5050138;28;20033;-68
2022/10/18 06:04:03;;;;;;;91.60;15.98;;;;;;;;;;5040998;28;20044;-67
2022/10/18 06:06:30;;;;;;;79.55;15.02;;;;;;;;;;5045355;28;20120;-68
2022/10/18 06:08:56;;;;;;;51.53;12.70;;;;;;;;;;5048813;28;20040;-67
2022/10/18 06:11:22;;;;;;;58.90;13.48;;;;;;;;;;5039121;28;20073;-67
2022/10/18 06:13:49;;;;;;;43.90;13.13;;;;;;;;;;5047891;28;20032;-67
2022/10/18 06:16:17;;;;;;;34.58;13.27;;;;;;;;;;5041021;28;20029;-66
2022/10/18 06:18:43;;;;;;;41.97;12.35;;;;;;;;;;5045464;28;20127;-67
2022/10/18 06:21:09;;;;;;;52.90;12.05;;;;;;;;;;5038272;28;20040;-67
2022/10/18 06:23:35;;;;;;;55.53;12.18;;;;;;;;;;5043983;28;20033;-68
2022/10/18 06:26:02;;;;;;;99.32;12.77;;;;;;;;;;5051344;28;20098;-67
2022/10/18 06:28:29;;;;;;;110.78;13.88;;;;;;;;;;5048427;28;20506;-67
2022/10/18 06:30:55;;;;;;;71.40;12.13;;;;;;;;;;5040101;28;20176;-67
2022/10/18 06:33:22;;;;;;;64.57;12.25;;;;;;;;;;5047900;28;20048;-66
2022/10/18 06:36:14;;;;;;;57.78;12.23;;;;;;;;;;5048889;28;20037;-67
2022/10/18 06:38:40;;;;;;;42.78;10.98;;;;;;;;;;5050682;28;20510;-67
2022/10/18 06:41:07;;;;;;;87.95;14.63;;;;;;;;;;5046514;28;20040;-67
2022/10/18 06:43:33;;;;;;;69.88;12.43;;;;;;;;;;5048892;28;20049;-67
2022/10/18 06:46:00;;;;;;;81.30;13.32;;;;;;;;;;5045362;28;20037;-67
2022/10/18 06:48:26;;;;;;;66.05;12.45;;;;;;;;;;5045215;28;20730;-67
2022/10/18 06:50:56;;;;;;;93.90;12.75;;;;;;;;;;5046160;28;20041;-67
2022/10/18 06:53:23;;;;;;;105.38;13.27;;;;;;;;;;5043507;28;20048;-67
2022/10/18 06:55:49;;;;;;;115.60;14.10;;;;;;;;;;5051393;28;20064;-67
2022/10/18 06:58:15;;;;;;;107.40;12.57;;;;;;;;;;5037089;28;20403;-66
2022/10/18 07:00:41;;;;;;;38.85;10.80;;;;;;;;;;5040418;28;20544;-67
2022/10/18 07:03:07;;;;;;;54.60;11.55;;;;;;;;;;5040668;28;20056;-67
2022/10/18 07:05:33;;;;;;;86.40;12.05;;;;;;;;;;5040355;28;20041;-67
2022/10/18 07:08:00;;;;;;;99.63;12.05;;;;;;;;;;5039988;28;20509;-67
2022/10/18 07:10:26;;;;;;;62.72;10.90;;;;;;;;;;5050767;28;20041;-67
2022/10/18 07:12:51;;;;;;;59.72;11.10;;;;;;;;;;5050714;28;20029;-68
2022/10/18 07:15:18;;;;;;;95.35;11.88;;;;;;;;;;5047292;28;20040;-67
2022/10/18 07:17:44;;;;;;;34.08;9.85;;;;;;;;;;5049332;28;20033;-67
2022/10/18 07:20:10;;;;;;;55.80;9.93;;;;;;;;;;5051421;28;20051;-67
2022/10/18 07:22:39;;;;;;;84.03;12.07;;;;;;;;;;5051038;28;20041;-67
2022/10/18 07:25:06;;;;;;;59.88;10.30;;;;;;;;;;5051845;28;20044;-67
2022/10/18 07:27:35;;;;;;;86.28;12.60;;;;;;;;;;5043131;28;20037;-67
2022/10/18 07:30:01;;;;;;;87.55;12.15;;;;;;;;;;5046262;28;20037;-67
2022/10/18 07:32:27;;;;;;;76.47;11.23;;;;;;;;;;5046996;28;20384;-67
2022/10/18 07:34:53;;;;;;;69.60;11.85;;;;;;;;;;5037283;28;20124;-67
2022/10/18 07:37:19;;;;;;;46.20;9.52;;;;;;;;;;5048739;28;20040;-67
2022/10/18 07:39:45;;;;;;;26.00;9.05;;;;;;;;;;5046572;28;20051;-67
2022/10/18 07:42:11;;;;;;;43.35;9.70;;;;;;;;;;5044799;28;20041;-68
2022/10/18 07:44:38;;;;;;;32.05;9.13;;;;;;;;;;5040260;28;20115;-68
2022/10/18 07:47:04;;;;;;;38.85;9.60;;;;;;;;;;5050623;28;20570;-68
2022/10/18 07:49:30;;;;;;;40.95;9.65;;;;;;;;;;5042981;28;20050;-68
2022/10/18 07:51:56;;;;;;;32.92;10.02;;;;;;;;;;5046517;28;20035;-68
2022/10/18 07:54:22;;;;;;;25.10;8.77;;;;;;;;;;5045266;28;20495;-68
2022/10/18 07:56:48;;;;;;;25.55;8.70;;;;;;;;;;5044796;28;20033;-68
2022/10/18 07:59:14;;;;;;;33.30;8.77;;;;;;;;;;5035546;28;20395;-68
2022/10/18 08:01:40;;;;;;;24.98;9.35;;;;;;;;;;5037300;28;20044;-68
2022/10/18 08:04:06;;;;;;;48.83;10.35;;;;;;;;;;5045855;28;20043;-67
2022/10/18 08:06:32;;;;;;;40.33;10.15;;;;;;;;;;5047815;28;20037;-67
2022/10/18 08:08:58;;;;;;;30.38;9.18;;;;;;;;;;5041714;28;20033;-66
2022/10/18 08:11:25;;;;;;;24.75;9.70;;;;;;;;;;5044383;28;20048;-66
2022/10/18 08:13:51;;;;;;;46.67;9.68;;;;;;;;;;5036309;28;20041;-67
2022/10/18 08:16:19;;;;;;;48.47;10.27;;;;;;;;;;5038703;28;20041;-68
2022/10/18 08:18:45;;;;;;;32.92;9.60;;;;;;;;;;5046808;28;20029;-67
2022/10/18 08:21:12;;;;;;;41.75;10.57;;;;;;;;;;5046969;28;20191;-66
2022/10/18 08:23:38;;;;;;;43.53;9.82;;;;;;;;;;5046086;28;20434;-67
2022/10/18 08:26:07;;;;;;;49.53;10.68;;;;;;;;;;5043392;28;20033;-68
2022/10/18 08:28:35;;;;;;;25.95;10.75;;;;;;;;;;5049065;28;20033;-68
2022/10/18 08:31:04;;;;;;;34.17;10.85;;;;;;;;;;5049130;28;20112;-69
2022/10/18 08:33:30;;;;;;;15.93;9.50;;;;;;;;;;5045746;28;20033;-67
2022/10/18 08:35:57;;;;;;;27.35;10.35;;;;;;;;;;5041716;28;20711;-68
2022/10/18 08:38:23;;;;;;;20.95;9.18;;;;;;;;;;5041654;28;20048;-67
2022/10/18 08:40:49;;;;;;;19.45;8.75;;;;;;;;;;5038308;28;20045;-68
2022/10/18 08:43:38;;;;;;;26.77;10.27;;;;;;;;;;5043134;28;20049;-68
2022/10/18 08:46:04;;;;;;;20.90;9.60;;;;;;;;;;5037899;28;20522;-68
2022/10/18 08:48:35;;;;;;;30.10;11.02;;;;;;;;;;5037953;28;20040;-67
2022/10/18 08:51:01;;;;;;;22.17;10.02;;;;;;;;;;5045789;28;20115;-67
2022/10/18 08:53:40;;;;;;;32.35;10.23;;;;;;;;;;5050656;28;20522;-67
2022/10/18 08:56:13;;;;;;;26.60;10.30;;;;;;;;;;5048380;28;20498;-67
2022/10/18 08:58:39;;;;;;;18.52;9.80;;;;;;;;;;5040190;28;20115;-67
2022/10/18 09:01:23;;;;;;;18.63;10.00;;;;;;;;;;5037501;28;20052;-68
2022/10/18 09:03:55;;;;;;;16.83;10.18;;;;;;;;;;5036838;28;20039;-68
2022/10/18 09:06:24;;;;;;;13.07;9.50;;;;;;;;;;5041757;28;20037;-69
2022/10/18 09:08:57;;;;;;;16.75;10.07;;;;;;;;;;5044075;28;20041;-69
2022/10/18 09:11:34;;;;;;;19.38;11.05;;;;;;;;;;5047581;28;20396;-69
2022/10/18 09:14:00;;;;;;;17.50;10.60;;;;;;;;;;5046549;28;20518;-69
2022/10/18 09:16:46;;;;;;;16.35;9.38;;;;;;;;;;5048913;28;20025;-68
2022/10/18 09:19:12;;;;;;;17.42;9.13;;;;;;;;;;5047735;28;20107;-68
2022/10/18 09:21:41;;;;;;;14.88;8.93;;;;;;;;;;5043929;28;20029;-68
2022/10/18 09:24:12;;;;;;;17.52;9.50;;;;;;;;;;5046809;28;20044;-67
2022/10/18 09:26:44;;;;;;;17.27;9.88;;;;;;;;;;5046787;28;20040;-67
2022/10/18 09:29:13;;;;;;;14.55;9.00;;;;;;;;;;5051525;28;20037;-68
2022/10/18 09:31:46;;;;;;;16.83;9.80;;;;;;;;;;5053899;28;20095;-67
2022/10/18 09:34:18;;;;;;;21.85;9.43;;;;;;;;;;5053807;28;20095;-67
2022/10/18 09:36:45;;;;;;;16.92;9.23;;;;;;;;;;5052142;28;20091;-68
2022/10/18 09:39:15;;;;;;;17.00;9.48;;;;;;;;;;5038088;28;20132;-68
2022/10/18 09:41:51;;;;;;;14.23;9.43;;;;;;;;;;5046099;28;20258;-67
2022/10/18 09:44:37;;;;;;;15.73;9.07;;;;;;;;;;5042855;28;20124;-67
2022/10/18 09:47:09;;;;;;;15.77;8.98;;;;;;;;;;5048407;28;20041;-69
2022/10/18 09:49:43;;;;;;;16.25;8.48;;;;;;;;;;5034795;28;20049;-69
2022/10/18 09:52:15;;;;;;;13.70;8.05;;;;;;;;;;5050212;28;20036;-69
2022/10/18 09:54:47;;;;;;;13.07;7.68;;;;;;;;;;5051790;28;20391;-69
2022/10/18 09:57:20;;;;;;;12.57;7.75;;;;;;;;;;5050133;28;20041;-69
2022/10/18 09:59:47;;;;;;;16.50;8.00;;;;;;;;;;5043136;28;20490;-69
2022/10/18 10:02:14;;;;;;;13.40;7.40;;;;;;;;;;5041679;28;20059;-69
2022/10/18 10:04:40;;;;;;;13.40;6.70;;;;;;;;;;5042558;28;20037;-69
2022/10/18 10:07:08;;;;;;;15.10;6.72;;;;;;;;;;5039536;28;20048;-69
2022/10/18 10:09:44;;;;;;;11.70;5.30;;;;;;;;;;5045644;28;20037;-69
2022/10/18 10:12:27;;;;;;;15.00;6.10;;;;;;;;;;5041451;28;20045;-70
2022/10/18 10:14:54;;;;;;;12.65;5.88;;;;;;;;;;5039525;28;20041;-69
2022/10/18 10:17:30;;;;;;;13.43;5.25;;;;;;;;;;5043963;28;20139;-70
2022/10/18 10:19:56;;;;;;;9.68;4.00;;;;;;;;;;5051936;28;20037;-69
2022/10/18 10:22:38;;;;;;;12.02;4.88;;;;;;;;;;5051844;28;20052;-70
2022/10/18 10:25:05;;;;;;;12.75;4.63;;;;;;;;;;5037064;28;20558;-71
2022/10/18 10:27:31;;;;;;;10.38;4.07;;;;;;;;;;5052329;28;20048;-71
2022/10/18 10:29:59;;;;;;;15.18;4.32;;;;;;;;;;5049060;28;20033;-69
2022/10/18 10:32:27;;;;;;;11.23;4.35;;;;;;;;;;5043557;28;20395;-68
2022/10/18 10:34:53;;;;;;;10.50;4.25;;;;;;;;;;5044913;28;20534;-69
2022/10/18 10:37:22;;;;;;;15.55;4.97;;;;;;;;;;5049458;28;20115;-68
2022/10/18 10:40:07;;;;;;;12.05;4.30;;;;;;;;;;5036621;28;20043;-69
2022/10/18 10:42:35;;;;;;;13.73;4.55;;;;;;;;;;5044059;28;20052;-69
2022/10/18 10:45:01;;;;;;;12.32;4.35;;;;;;;;;;5048777;28;20098;-68
2022/10/18 10:47:32;;;;;;;12.70;3.95;;;;;;;;;;5046278;28;20120;-68
2022/10/18 10:49:58;;;;;;;9.57;4.00;;;;;;;;;;5037536;28;20040;-69
2022/10/18 10:52:26;;;;;;;12.32;3.72;;;;;;;;;;5051950;28;20494;-69
2022/10/18 10:54:52;;;;;;;8.30;3.58;;;;;;;;;;5039439;28;20032;-69
2022/10/18 10:57:23;;;;;;;13.05;3.13;;;;;;;;;;5043440;28;20033;-69
2022/10/18 10:59:50;;;;;;;9.20;3.13;;;;;;;;;;5046582;28;20087;-69
2022/10/18 11:02:17;;;;;;;8.85;3.20;;;;;;;;;;5044574;28;20054;-69
2022/10/18 11:04:43;;;;;;;7.97;2.28;;;;;;;;;;5044116;28;20091;-69
2022/10/18 11:07:18;;;;;;;7.53;2.50;;;;;;;;;;5046691;28;20047;-67
2022/10/18 11:09:55;;;;;;;10.43;2.30;;;;;;;;;;5049161;28;20170;-66
2022/10/18 11:12:24;;;;;;;10.65;2.38;;;;;;;;;;5042927;28;20044;-66
2022/10/18 11:14:53;;;;;;;8.15;2.17;;;;;;;;;;5051746;28;20037;-66
2022/10/18 11:17:27;;;;;;;11.43;2.58;;;;;;;;;;5051664;28;20041;-66
2022/10/18 11:20:00;;;;;;;10.93;2.75;;;;;;;;;;5051638;28;20067;-66
2022/10/18 11:22:28;;;;;;;9.25;2.30;;;;;;;;;;5049348;28;20449;-66
2022/10/18 11:24:54;;;;;;;8.30;2.08;;;;;;;;;;5045832;28;20045;-66
2022/10/18 11:27:22;;;;;;;7.13;1.98;;;;;;;;;;5049820;28;20076;-66
2022/10/18 11:29:54;;;;;;;10.00;1.92;;;;;;;;;;5050923;28;20494;-66
2022/10/18 11:32:29;;;;;;;11.43;2.17;;;;;;;;;;5051857;28;20048;-66
2022/10/18 11:35:01;;;;;;;11.40;1.80;;;;;;;;;;5051370;28;20041;-66
2022/10/18 11:37:33;;;;;;;9.98;2.03;;;;;;;;;;5045908;28;20380;-66
2022/10/18 11:40:18;;;;;;;10.90;1.80;;;;;;;;;;5045021;28;20119;-66
2022/10/18 11:42:46;;;;;;;12.05;2.78;;;;;;;;;;5046078;28;20041;-67
2022/10/18 11:45:31;;;;;;;7.00;2.17;;;;;;;;;;5043040;28;20124;-66
2022/10/18 11:48:01;;;;;;;10.02;1.85;;;;;;;;;;5042520;28;20124;-66
2022/10/18 11:50:34;;;;;;;8.88;1.90;;;;;;;;;;5047334;28;20033;-66
2022/10/18 11:53:06;;;;;;;9.32;2.03;;;;;;;;;;5039605;28;20052;-66
2022/10/18 11:55:52;;;;;;;10.20;1.70;;;;;;;;;;5047449;28;20037;-66
2022/10/18 11:58:29;;;;;;;6.57;1.70;;;;;;;;;;5049688;28;20063;-67
2022/10/18 12:01:05;;;;;;;10.32;2.05;;;;;;;;;;5040159;28;20084;-68
2022/10/18 12:03:36;;;;;;;7.30;1.23;;;;;;;;;;5041756;28;20033;-67
2022/10/18 12:06:10;;;;;;;5.60;1.77;;;;;;;;;;5038172;28;20029;-66
2022/10/18 12:08:38;;;;;;;9.63;1.92;;;;;;;;;;5042668;28;20048;-66
2022/10/18 12:11:39;;;;;;;8.27;1.33;;;;;;;;;;5047836;28;20033;-66
2022/10/18 12:14:16;;;;;;;6.57;1.55;;;;;;;;;;5052743;28;20118;-66
2022/10/18 12:16:43;;;;;;;9.55;1.50;;;;;;;;;;5045076;28;20045;-66
2022/10/18 12:19:21;;;;;;;7.55;1.60;;;;;;;;;;5045736;28;20478;-66
2022/10/18 12:21:47;;;;;;;10.63;1.90;;;;;;;;;;5043523;28;20040;-66
2022/10/18 12:24:19;;;;;;;9.05;2.03;;;;;;;;;;5047931;28;20073;-66
2022/10/18 12:26:47;;;;;;;12.43;1.98;;;;;;;;;;5052249;28;20110;-66
2022/10/18 12:29:16;;;;;;;9.13;1.63;;;;;;;;;;5050538;28;20499;-67
2022/10/18 12:31:47;;;;;;;9.20;1.58;;;;;;;;;;5054096;28;20064;-67
2022/10/18 12:34:13;;;;;;;;;;;;;;;;;;5048185;28;20041;-66
2022/10/18 12:36:58;;;;;;;7.95;1.83;;;;;;;;;;5038758;28;19932;-67
2022/10/18 12:39:29;;;;;;;6.22;1.70;;;;;;;;;;5036569;28;21460;-67
2022/10/18 12:41:55;;;;;;;;;;;;;;;;;;5031264;28;20039;-67
2022/10/18 12:44:28;;;;;;;10.40;1.77;;;;;;;;;;5036516;28;20359;-67
2022/10/18 12:46:56;;;;;;;10.60;1.45;;;;;;;;;;5037872;28;20510;-67
2022/10/18 12:49:28;;;;;;;9.52;1.67;;;;;;;;;;5040792;28;20087;-68
2022/10/18 12:51:57;;;;;;;11.68;1.77;;;;;;;;;;5053912;28;20090;-68
2022/10/18 12:54:26;;;;;;;13.35;1.30;;;;;;;;;;5050903;28;20353;-68
2022/10/18 12:56:52;;;;;;;10.10;1.20;;;;;;;;;;5049567;28;20091;-68
2022/10/18 12:59:18;;;;;;;11.52;1.60;;;;;;;;;;5052278;28;20041;-68
2022/10/18 13:01:51;;;;;;;8.98;1.70;;;;;;;;;;5052363;28;20386;-68
2022/10/18 13:04:26;;;;;;;6.90;1.65;;;;;;;;;;5052340;28;20049;-68
2022/10/18 13:06:58;;;;;;;5.68;1.65;;;;;;;;;;5055096;28;20045;-68
2022/10/18 13:09:24;;;;;;;9.05;1.75;;;;;;;;;;5049337;28;20080;-68
2022/10/18 13:11:52;;;;;;;12.82;1.60;;;;;;;;;;5037107;28;20069;-68
2022/10/18 13:14:30;;;;;;;10.48;1.85;;;;;;;;;;5042446;28;20574;-69
2022/10/18 13:17:04;;;;;;;9.73;1.50;;;;;;;;;;5053178;28;20041;-69
2022/10/18 13:19:49;;;;;;;10.77;1.65;;;;;;;;;;5038066;28;20032;-69
2022/10/18 13:22:24;;;;;;;8.57;1.77;;;;;;;;;;5052799;28;20108;-68
2022/10/18 13:25:00;;;;;;;8.48;1.70;;;;;;;;;;5053529;28;20033;-69
2022/10/18 13:27:55;;;;;;;7.07;1.50;;;;;;;;;;5053413;28;20045;-70
2022/10/18 13:30:37;;;;;;;7.35;1.42;;;;;;;;;;5050605;28;20503;-69
2022/10/18 13:33:28;;;;;;;6.97;1.52;;;;;;;;;;5050353;28;20539;-69
2022/10/18 13:35:56;;;;;;;4.82;1.33;;;;;;;;;;5053809;28;20033;-69
2022/10/18 13:38:40;;;;;;;5.88;1.65;;;;;;;;;;5048581;28;20063;-70
2022/10/18 13:41:06;;;;;;;7.65;1.40;;;;;;;;;;5053123;28;20533;-69
2022/10/18 13:43:51;;;;;;;6.63;1.77;;;;;;;;;;5052860;28;20069;-69
2022/10/18 13:46:41;;;;;;;6.90;1.60;;;;;;;;;;5048523;28;20049;-69
2022/10/18 13:49:16;;;;;;;7.60;1.40;;;;;;;;;;5049158;28;20126;-69
2022/10/18 13:51:48;;;;;;;10.35;1.67;;;;;;;;;;5048534;28;20048;-70
2022/10/18 13:54:33;;;;;;;9.63;1.60;;;;;;;;;;5049424;28;20120;-70
2022/10/18 13:57:02;;;;;;;8.05;1.70;;;;;;;;;;5052902;28;20044;-70
2022/10/18 13:59:34;;;;;;;7.47;1.77;;;;;;;;;;5042621;28;20478;-70
2022/10/18 14:02:29;;;;;;;7.95;1.75;;;;;;;;;;5044587;28;20033;-68
2022/10/18 14:05:14;;;;;;;10.35;1.58;;;;;;;;;;5025888;28;20407;-70
2022/10/18 14:07:42;;;;;;;7.32;1.40;;;;;;;;;;5040608;28;20428;-70
2022/10/18 14:10:23;;;;;;;6.38;1.38;;;;;;;;;;5039638;28;20041;-71
2022/10/18 14:12:56;;;;;;;8.38;1.80;;;;;;;;;;5047194;28;20033;-71
2022/10/18 14:15:26;;;;;;;5.90;1.50;;;;;;;;;;5044490;28;20511;-70
2022/10/18 14:17:56;;;;;;;5.72;1.20;;;;;;;;;;5046472;28;20035;-71
2022/10/18 14:20:25;;;;;;;9.40;1.60;;;;;;;;;;5043864;28;20518;-70
2022/10/18 14:23:10;;;;;;;11.27;1.60;;;;;;;;;;5036185;28;20514;-71
2022/10/18 14:25:36;;;;;;;7.13;1.38;;;;;;;;;;5044645;28;20044;-71
2022/10/18 14:28:12;;;;;;;12.07;1.73;;;;;;;;;;5037616;28;20124;-70
2022/10/18 14:30:51;;;;;;;12.68;1.50;;;;;;;;;;5039075;28;20120;-70
2022/10/18 14:33:32;;;;;;;11.13;1.65;;;;;;;;;;5048262;28;20490;-69
2022/10/18 14:36:03;;;;;;;7.15;1.40;;;;;;;;;;5042284;28;20033;-71
2022/10/18 14:38:30;;;;;;;9.68;1.50;;;;;;;;;;5039007;28;20120;-70
2022/10/18 14:41:07;;;;;;;10.77;1.85;;;;;;;;;;5047074;28;20036;-70